Time;durP1;ratioP1;P1;durP2;ratioP2;P2;SDS_P1;SDS_P2;PMS_P1;PMS_P2;Temp;Humidity;BMP_temperature;BMP_pressure;BME280_temperature;BME280_humidity;BME280_pressure;Samples;Min_cycle;Max_cycle;Signal;HPM_P1;HPM_P2
2022/08/26 00:00:46;;;;;;;139.60;22.90;;;;;;;;;;4973901;28;20042;-61
2022/08/26 00:03:14;;;;;;;135.57;21.15;;;;;;;;;;4971212;28;20054;-60
2022/08/26 00:05:41;;;;;;;140.60;22.38;;;;;;;;;;4973947;28;20551;-61
2022/08/26 00:08:09;;;;;;;149.82;21.02;;;;;;;;;;4973520;28;20026;-60
2022/08/26 00:10:36;;;;;;;146.73;22.75;;;;;;;;;;4973938;28;20046;-60
2022/08/26 00:13:03;;;;;;;149.13;22.73;;;;;;;;;;4973994;28;20397;-60
2022/08/26 00:15:30;;;;;;;157.57;22.30;;;;;;;;;;4973672;28;20477;-60
2022/08/26 00:17:57;;;;;;;137.43;22.17;;;;;;;;;;4971499;28;20042;-60
2022/08/26 00:20:27;;;;;;;155.00;22.67;;;;;;;;;;4973608;28;20027;-60
2022/08/26 00:22:54;;;;;;;144.98;22.05;;;;;;;;;;4971812;28;20054;-60
2022/08/26 00:25:21;;;;;;;142.32;23.88;;;;;;;;;;4972199;28;20027;-60
2022/08/26 00:27:48;;;;;;;134.60;21.98;;;;;;;;;;4971828;28;20374;-59
2022/08/26 00:30:17;;;;;;;161.35;23.20;;;;;;;;;;4972307;28;20045;-60
2022/08/26 00:32:44;;;;;;;154.07;25.63;;;;;;;;;;4971586;28;20030;-60
2022/08/26 00:35:12;;;;;;;165.27;28.35;;;;;;;;;;4972777;28;20035;-60
2022/08/26 00:37:39;;;;;;;163.70;33.65;;;;;;;;;;4971979;28;20105;-62
2022/08/26 00:40:08;;;;;;;159.85;37.50;;;;;;;;;;4952651;28;20038;-59
2022/08/26 00:42:35;;;;;;;176.15;39.33;;;;;;;;;;4970743;28;20034;-59
2022/08/26 00:45:02;;;;;;;201.40;41.15;;;;;;;;;;4971375;28;20255;-59
2022/08/26 00:47:34;;;;;;;181.75;42.78;;;;;;;;;;4972237;28;20031;-61
2022/08/26 00:50:02;;;;;;;172.45;43.30;;;;;;;;;;4972207;28;20061;-61
2022/08/26 00:52:29;;;;;;;191.27;42.83;;;;;;;;;;4971966;28;20027;-60
2022/08/26 00:55:03;;;;;;;176.05;41.45;;;;;;;;;;4973269;28;20027;-60
2022/08/26 00:57:31;;;;;;;190.32;42.97;;;;;;;;;;4972414;28;20134;-60
2022/08/26 00:59:59;;;;;;;184.25;42.58;;;;;;;;;;4972029;28;20078;-60
2022/08/26 01:02:27;;;;;;;196.55;44.38;;;;;;;;;;4972558;28;20042;-61
2022/08/26 01:04:55;;;;;;;176.02;42.80;;;;;;;;;;4973480;28;20482;-60
2022/08/26 01:07:24;;;;;;;209.75;42.47;;;;;;;;;;4973535;28;20027;-60
2022/08/26 01:09:51;;;;;;;197.02;41.47;;;;;;;;;;4973402;28;20397;-60
2022/08/26 01:12:18;;;;;;;204.55;40.78;;;;;;;;;;4973511;28;20027;-60
2022/08/26 01:14:46;;;;;;;194.63;41.88;;;;;;;;;;4975084;28;20499;-60
2022/08/26 01:17:14;;;;;;;206.32;41.88;;;;;;;;;;4973802;28;20038;-60
2022/08/26 01:19:43;;;;;;;211.45;45.08;;;;;;;;;;4976458;28;20063;-60
2022/08/26 01:22:21;;;;;;;218.38;42.97;;;;;;;;;;4975728;28;20032;-60
2022/08/26 01:24:49;;;;;;;225.13;44.65;;;;;;;;;;4976796;28;20484;-60
2022/08/26 01:27:17;;;;;;;219.07;44.28;;;;;;;;;;4977411;28;20488;-60
2022/08/26 01:29:45;;;;;;;225.60;43.15;;;;;;;;;;4975717;28;20129;-60
2022/08/26 01:32:16;;;;;;;224.65;42.05;;;;;;;;;;4971098;28;20030;-60
2022/08/26 01:35:03;;;;;;;207.70;40.35;;;;;;;;;;4971776;28;20058;-60
2022/08/26 01:37:35;;;;;;;221.60;39.88;;;;;;;;;;4973456;28;20042;-60
2022/08/26 01:40:02;;;;;;;217.07;41.25;;;;;;;;;;4971640;28;20038;-60
2022/08/26 01:42:29;;;;;;;225.88;38.30;;;;;;;;;;4973721;28;20034;-54
2022/08/26 01:45:17;;;;;;;191.25;37.78;;;;;;;;;;4969438;28;20038;-54
2022/08/26 01:47:44;;;;;;;203.90;37.67;;;;;;;;;;4977405;28;20126;-61
2022/08/26 01:50:14;;;;;;;189.07;34.78;;;;;;;;;;4964205;28;20536;-61
2022/08/26 01:52:42;;;;;;;201.98;35.70;;;;;;;;;;4977008;28;20034;-60
2022/08/26 01:55:09;;;;;;;195.05;36.90;;;;;;;;;;4971277;28;20030;-59
2022/08/26 01:57:36;;;;;;;184.90;35.35;;;;;;;;;;4968642;28;20373;-60
2022/08/26 02:00:09;;;;;;;174.02;34.40;;;;;;;;;;4979766;28;20109;-60
2022/08/26 02:02:37;;;;;;;159.95;32.65;;;;;;;;;;4975685;28;20034;-60
2022/08/26 02:05:05;;;;;;;157.23;30.05;;;;;;;;;;4978361;28;20027;-60
2022/08/26 02:07:33;;;;;;;173.77;32.38;;;;;;;;;;4975989;28;20034;-61
2022/08/26 02:10:00;;;;;;;162.55;32.88;;;;;;;;;;4974407;28;20069;-61
2022/08/26 02:12:27;;;;;;;165.38;30.95;;;;;;;;;;4973894;28;20118;-61
2022/08/26 02:14:57;;;;;;;168.73;31.88;;;;;;;;;;4974497;28;20058;-61
2022/08/26 02:17:30;;;;;;;155.20;30.83;;;;;;;;;;4974558;28;20648;-61
2022/08/26 02:19:57;;;;;;;157.35;31.98;;;;;;;;;;4974652;28;20125;-60
2022/08/26 02:22:25;;;;;;;154.82;29.10;;;;;;;;;;4974180;28;20042;-62
2022/08/26 02:24:56;;;;;;;150.40;29.23;;;;;;;;;;4974101;28;20034;-60
2022/08/26 02:27:25;;;;;;;155.93;30.55;;;;;;;;;;4972656;28;20442;-60
2022/08/26 02:29:55;;;;;;;140.38;28.77;;;;;;;;;;4973916;28;20464;-61
2022/08/26 02:32:23;;;;;;;142.82;28.92;;;;;;;;;;4973899;28;20046;-61
2022/08/26 02:34:50;;;;;;;137.20;26.35;;;;;;;;;;4973834;28;20043;-61
2022/08/26 02:37:17;;;;;;;140.85;27.52;;;;;;;;;;4973678;28;20030;-60
2022/08/26 02:39:44;;;;;;;144.75;26.88;;;;;;;;;;4966393;28;20031;-61
2022/08/26 02:42:11;;;;;;;134.15;28.27;;;;;;;;;;4967364;28;20049;-61
2022/08/26 02:44:38;;;;;;;144.88;27.20;;;;;;;;;;4976163;28;20557;-61
2022/08/26 02:47:06;;;;;;;139.00;28.75;;;;;;;;;;4975905;28;20117;-61
2022/08/26 02:49:33;;;;;;;139.00;28.15;;;;;;;;;;4975559;28;20381;-60
2022/08/26 02:52:00;;;;;;;134.85;27.48;;;;;;;;;;4974954;28;20089;-61
2022/08/26 02:54:27;;;;;;;152.32;28.98;;;;;;;;;;4975969;28;20060;-60
2022/08/26 02:56:55;;;;;;;145.82;28.52;;;;;;;;;;4975865;28;20039;-60
2022/08/26 02:59:22;;;;;;;130.48;26.40;;;;;;;;;;4975771;28;20042;-61
2022/08/26 03:01:49;;;;;;;150.30;26.77;;;;;;;;;;4975679;28;20059;-61
2022/08/26 03:04:16;;;;;;;132.77;26.17;;;;;;;;;;4975915;28;20401;-61
2022/08/26 03:06:43;;;;;;;147.57;26.67;;;;;;;;;;4975780;28;20430;-61
2022/08/26 03:09:10;;;;;;;126.50;26.42;;;;;;;;;;4975763;28;20046;-61
2022/08/26 03:11:38;;;;;;;141.50;25.98;;;;;;;;;;4975766;28;20018;-61
2022/08/26 03:14:05;;;;;;;110.55;25.35;;;;;;;;;;4975579;28;20381;-61
2022/08/26 03:16:32;;;;;;;115.00;25.80;;;;;;;;;;4975801;28;20089;-61
2022/08/26 03:19:01;;;;;;;112.28;25.52;;;;;;;;;;4975681;28;20508;-61
2022/08/26 03:21:28;;;;;;;122.47;26.35;;;;;;;;;;4975647;28;20038;-61
2022/08/26 03:23:55;;;;;;;110.95;26.17;;;;;;;;;;4975477;28;20047;-61
2022/08/26 03:26:23;;;;;;;106.53;24.95;;;;;;;;;;4975577;28;20121;-61
2022/08/26 03:31:35;;;;;;;109.10;23.83;;;;;;;;;;4975431;28;20443;-61
2022/08/26 03:34:03;;;;;;;96.20;22.73;;;;;;;;;;4975238;28;20121;-61
2022/08/26 03:36:29;;;;;;;98.55;24.13;;;;;;;;;;4957878;28;20039;-61
2022/08/26 03:38:56;;;;;;;95.75;23.20;;;;;;;;;;4975082;28;20027;-61
2022/08/26 03:41:23;;;;;;;79.72;21.88;;;;;;;;;;4975197;28;20481;-61
2022/08/26 03:43:50;;;;;;;86.05;22.35;;;;;;;;;;4975310;28;20051;-61
2022/08/26 03:46:19;;;;;;;86.20;22.05;;;;;;;;;;4975195;28;20026;-61
2022/08/26 03:48:46;;;;;;;84.95;21.20;;;;;;;;;;4974772;28;20022;-61
2022/08/26 03:51:15;;;;;;;81.32;21.30;;;;;;;;;;4975038;28;20480;-61
2022/08/26 03:53:42;;;;;;;79.05;22.00;;;;;;;;;;4975086;28;20034;-61
2022/08/26 03:56:09;;;;;;;78.13;20.45;;;;;;;;;;4974994;28;20469;-61
2022/08/26 03:58:37;;;;;;;71.70;19.50;;;;;;;;;;4974751;28;20041;-61
2022/08/26 04:01:05;;;;;;;74.68;19.92;;;;;;;;;;4974835;28;20053;-61
2022/08/26 04:06:17;;;;;;;67.57;20.13;;;;;;;;;;4974851;28;20037;-61
2022/08/26 04:08:44;;;;;;;72.47;20.42;;;;;;;;;;4974468;28;20041;-61
2022/08/26 04:11:17;;;;;;;64.88;18.70;;;;;;;;;;4974577;28;20054;-61
2022/08/26 04:13:44;;;;;;;74.90;19.08;;;;;;;;;;4974154;28;20038;-61
2022/08/26 04:16:11;;;;;;;68.63;18.50;;;;;;;;;;4974597;28;20062;-61
2022/08/26 04:18:38;;;;;;;64.60;19.10;;;;;;;;;;4974349;28;20034;-61
2022/08/26 04:21:06;;;;;;;62.03;19.15;;;;;;;;;;4974522;28;20034;-61
2022/08/26 04:23:33;;;;;;;60.33;18.58;;;;;;;;;;4974313;28;20081;-61
2022/08/26 04:26:00;;;;;;;65.25;18.23;;;;;;;;;;4974467;28;20030;-61
2022/08/26 04:28:28;;;;;;;64.95;18.05;;;;;;;;;;4974280;28;20071;-61
2022/08/26 04:30:55;;;;;;;60.90;18.00;;;;;;;;;;4957220;28;20385;-60
2022/08/26 04:33:22;;;;;;;59.20;17.55;;;;;;;;;;4974428;28;20382;-61
2022/08/26 04:35:49;;;;;;;52.75;16.52;;;;;;;;;;4974185;28;20050;-61
2022/08/26 04:38:18;;;;;;;53.22;16.70;;;;;;;;;;4973218;28;20086;-61
2022/08/26 04:40:46;;;;;;;56.65;16.88;;;;;;;;;;4972205;28;20397;-61
2022/08/26 04:43:14;;;;;;;53.08;17.13;;;;;;;;;;4973989;28;20035;-61
2022/08/26 04:45:42;;;;;;;53.28;16.73;;;;;;;;;;4973034;28;20039;-61
2022/08/26 04:48:10;;;;;;;49.22;16.55;;;;;;;;;;4972630;28;20054;-61
2022/08/26 04:50:37;;;;;;;52.78;16.98;;;;;;;;;;4972936;28;20125;-61
2022/08/26 04:53:04;;;;;;;57.42;17.15;;;;;;;;;;4972018;28;20050;-61
2022/08/26 04:55:31;;;;;;;55.33;16.90;;;;;;;;;;4972970;28;20378;-61
2022/08/26 04:57:58;;;;;;;49.13;16.15;;;;;;;;;;4972684;28;20039;-61
2022/08/26 05:00:25;;;;;;;55.10;16.17;;;;;;;;;;4973412;28;20035;-61
2022/08/26 05:02:52;;;;;;;45.70;15.40;;;;;;;;;;4973200;28;20035;-61
2022/08/26 05:05:20;;;;;;;44.05;16.33;;;;;;;;;;4973785;28;20045;-61
2022/08/26 05:07:47;;;;;;;45.55;15.98;;;;;;;;;;4973029;28;20035;-61
2022/08/26 05:10:14;;;;;;;48.40;16.20;;;;;;;;;;4973732;28;20022;-61
2022/08/26 05:12:41;;;;;;;50.38;15.23;;;;;;;;;;4973572;28;20058;-62
2022/08/26 05:15:09;;;;;;;47.25;15.32;;;;;;;;;;4973517;28;20109;-61
2022/08/26 05:17:36;;;;;;;43.55;15.00;;;;;;;;;;4973348;28;20101;-61
2022/08/26 05:20:03;;;;;;;42.22;15.30;;;;;;;;;;4973648;28;20477;-61
2022/08/26 05:22:30;;;;;;;41.83;14.25;;;;;;;;;;4973639;28;20030;-61
2022/08/26 05:24:57;;;;;;;49.92;14.95;;;;;;;;;;4974820;28;20111;-61
2022/08/26 05:27:24;;;;;;;39.47;14.77;;;;;;;;;;4977364;28;20034;-61
2022/08/26 05:29:51;;;;;;;40.33;14.02;;;;;;;;;;4976269;28;20031;-61
2022/08/26 05:32:18;;;;;;;34.17;12.63;;;;;;;;;;4977551;28;20031;-61
2022/08/26 05:34:45;;;;;;;39.35;14.90;;;;;;;;;;4977101;28;20058;-61
2022/08/26 05:37:12;;;;;;;37.17;13.32;;;;;;;;;;4977201;28;20552;-61
2022/08/26 05:39:39;;;;;;;35.88;13.05;;;;;;;;;;4977304;28;20031;-61
2022/08/26 05:42:07;;;;;;;39.03;13.35;;;;;;;;;;4977661;28;20034;-61
2022/08/26 05:44:34;;;;;;;33.58;12.70;;;;;;;;;;4977244;28;20062;-61
2022/08/26 05:47:00;;;;;;;37.58;12.93;;;;;;;;;;4977202;28;20034;-61
2022/08/26 05:49:27;;;;;;;35.92;13.32;;;;;;;;;;4977252;28;20505;-61
2022/08/26 05:51:54;;;;;;;32.75;12.43;;;;;;;;;;4977185;28;20033;-61
2022/08/26 05:54:21;;;;;;;39.97;13.45;;;;;;;;;;4977269;28;20057;-61
2022/08/26 05:56:48;;;;;;;38.22;13.25;;;;;;;;;;4976988;28;20031;-60
2022/08/26 05:59:15;;;;;;;33.13;12.23;;;;;;;;;;4977202;28;20034;-61
2022/08/26 06:01:43;;;;;;;28.95;12.18;;;;;;;;;;4973546;28;20031;-61
2022/08/26 06:04:10;;;;;;;32.63;12.60;;;;;;;;;;4976846;28;20110;-61
2022/08/26 06:06:40;;;;;;;28.92;11.45;;;;;;;;;;4976768;28;20038;-61
2022/08/26 06:09:09;;;;;;;35.03;12.35;;;;;;;;;;4976809;28;20117;-61
2022/08/26 06:11:36;;;;;;;30.13;12.00;;;;;;;;;;4976395;28;20065;-61
2022/08/26 06:14:04;;;;;;;27.80;11.95;;;;;;;;;;4976770;28;20042;-61
2022/08/26 06:16:33;;;;;;;32.38;12.20;;;;;;;;;;4976901;28;20077;-61
2022/08/26 06:19:02;;;;;;;30.52;10.85;;;;;;;;;;4976566;28;20038;-61
2022/08/26 06:21:30;;;;;;;31.38;11.50;;;;;;;;;;4976726;28;20034;-61
2022/08/26 06:26:52;;;;;;;27.25;11.93;;;;;;;;;;4976856;28;20073;-61
2022/08/26 06:29:21;;;;;;;32.53;11.65;;;;;;;;;;4976641;28;20034;-61
2022/08/26 06:31:48;;;;;;;30.10;11.70;;;;;;;;;;4976404;28;20397;-61
2022/08/26 06:34:16;;;;;;;26.38;10.85;;;;;;;;;;4976254;28;20066;-61
2022/08/26 06:36:43;;;;;;;26.52;11.65;;;;;;;;;;4975550;28;20043;-61
2022/08/26 06:39:11;;;;;;;30.17;11.32;;;;;;;;;;4976466;28;20027;-61
2022/08/26 06:41:39;;;;;;;28.33;10.90;;;;;;;;;;4976456;28;20470;-61
2022/08/26 06:44:07;;;;;;;27.70;10.70;;;;;;;;;;4976349;28;20105;-61
2022/08/26 06:46:33;;;;;;;28.00;10.52;;;;;;;;;;4976094;28;20144;-61
2022/08/26 06:49:00;;;;;;;28.30;11.40;;;;;;;;;;4976258;28;20051;-61
2022/08/26 06:51:30;;;;;;;29.10;10.68;;;;;;;;;;4976246;28;20501;-61
2022/08/26 06:53:59;;;;;;;29.95;10.57;;;;;;;;;;4976042;28;20038;-61
2022/08/26 06:56:27;;;;;;;23.30;10.02;;;;;;;;;;4976204;28;20038;-62
2022/08/26 06:58:54;;;;;;;26.88;10.35;;;;;;;;;;4975912;28;20038;-61
2022/08/26 07:01:23;;;;;;;25.30;10.20;;;;;;;;;;4976000;28;20051;-61
2022/08/26 07:03:51;;;;;;;27.88;10.98;;;;;;;;;;4975875;28;20043;-61
2022/08/26 07:06:18;;;;;;;24.70;10.25;;;;;;;;;;4975871;28;20031;-61
2022/08/26 07:08:46;;;;;;;31.85;10.52;;;;;;;;;;4979786;28;20056;-62
2022/08/26 07:11:13;;;;;;;21.77;9.20;;;;;;;;;;4995132;28;20040;-61
2022/08/26 07:13:40;;;;;;;25.02;10.35;;;;;;;;;;4995124;28;20033;-61
2022/08/26 07:16:11;;;;;;;24.00;9.90;;;;;;;;;;4995081;28;20038;-61
2022/08/26 07:18:40;;;;;;;28.48;10.60;;;;;;;;;;4994958;28;20030;-61
2022/08/26 07:21:08;;;;;;;22.98;9.77;;;;;;;;;;4994993;28;20485;-61
2022/08/26 07:23:36;;;;;;;29.63;9.52;;;;;;;;;;4994926;28;20058;-61
2022/08/26 07:26:06;;;;;;;22.75;9.13;;;;;;;;;;4995021;28;20041;-61
2022/08/26 07:28:33;;;;;;;23.50;9.40;;;;;;;;;;4994854;28;20061;-61
2022/08/26 07:31:10;;;;;;;21.38;9.40;;;;;;;;;;4994842;28;20554;-61
2022/08/26 07:33:38;;;;;;;20.45;9.18;;;;;;;;;;4994708;28;20090;-61
2022/08/26 07:36:05;;;;;;;20.92;8.45;;;;;;;;;;4994725;28;20053;-61
2022/08/26 07:38:33;;;;;;;18.88;8.82;;;;;;;;;;4994571;28;20034;-61
2022/08/26 07:41:00;;;;;;;22.15;9.07;;;;;;;;;;4994651;28;20063;-61
2022/08/26 07:43:27;;;;;;;19.67;8.77;;;;;;;;;;4994672;28;20030;-61
2022/08/26 07:45:54;;;;;;;20.83;9.00;;;;;;;;;;4994451;28;20034;-61
2022/08/26 07:48:21;;;;;;;17.77;8.48;;;;;;;;;;4993562;28;20370;-61
2022/08/26 07:50:49;;;;;;;21.88;8.55;;;;;;;;;;4994543;28;20109;-61
2022/08/26 07:53:16;;;;;;;22.55;9.15;;;;;;;;;;4994541;28;20038;-61
2022/08/26 07:55:43;;;;;;;18.23;7.93;;;;;;;;;;4994419;28;20036;-61
2022/08/26 07:58:10;;;;;;;18.65;7.97;;;;;;;;;;4994225;28;20030;-61
2022/08/26 08:00:38;;;;;;;17.08;7.95;;;;;;;;;;4994190;28;20077;-61
2022/08/26 08:03:05;;;;;;;16.00;7.90;;;;;;;;;;4994142;28;20030;-61
2022/08/26 08:05:33;;;;;;;18.67;8.40;;;;;;;;;;4976779;28;20370;-61
2022/08/26 08:08:01;;;;;;;16.73;7.88;;;;;;;;;;4994028;28;20066;-61
2022/08/26 08:10:28;;;;;;;18.98;8.32;;;;;;;;;;4993994;28;20033;-61
2022/08/26 08:12:56;;;;;;;19.77;7.97;;;;;;;;;;4994014;28;20022;-61
2022/08/26 08:15:25;;;;;;;16.83;8.02;;;;;;;;;;4994029;28;20031;-62
2022/08/26 08:17:52;;;;;;;16.08;7.45;;;;;;;;;;4993783;28;20038;-61
2022/08/26 08:20:19;;;;;;;16.80;7.75;;;;;;;;;;4994039;28;20504;-61
2022/08/26 08:22:46;;;;;;;13.85;6.82;;;;;;;;;;4976345;28;20446;-61
2022/08/26 08:25:13;;;;;;;12.88;7.00;;;;;;;;;;4993818;28;20050;-61
2022/08/26 08:27:41;;;;;;;18.08;7.18;;;;;;;;;;4993769;28;20034;-61
2022/08/26 08:30:09;;;;;;;15.57;7.53;;;;;;;;;;4993671;28;20061;-61
2022/08/26 08:32:42;;;;;;;18.13;7.10;;;;;;;;;;4993525;28;20071;-61
2022/08/26 08:35:09;;;;;;;14.48;7.20;;;;;;;;;;4993497;28;20058;-61
2022/08/26 08:37:36;;;;;;;12.00;6.25;;;;;;;;;;4993412;28;20038;-61
2022/08/26 08:40:06;;;;;;;14.88;6.45;;;;;;;;;;4993671;28;20153;-61
2022/08/26 08:42:32;;;;;;;14.00;6.45;;;;;;;;;;4993552;28;20652;-61
2022/08/26 08:45:03;;;;;;;17.98;7.07;;;;;;;;;;4993620;28;20033;-61
2022/08/26 08:47:40;;;;;;;14.73;7.20;;;;;;;;;;4993356;28;20489;-61
2022/08/26 08:50:16;;;;;;;13.60;6.70;;;;;;;;;;4993404;28;20041;-61
2022/08/26 08:52:45;;;;;;;13.85;6.20;;;;;;;;;;4993457;28;20173;-61
2022/08/26 08:55:14;;;;;;;14.23;6.75;;;;;;;;;;4993529;28;20097;-61
2022/08/26 08:58:05;;;;;;;14.90;7.10;;;;;;;;;;4993327;28;20037;-61
2022/08/26 09:00:36;;;;;;;14.27;6.13;;;;;;;;;;4993295;28;20030;-61
2022/08/26 09:03:22;;;;;;;15.00;7.00;;;;;;;;;;4993261;28;20088;-61
2022/08/26 09:05:52;;;;;;;12.05;5.63;;;;;;;;;;4993377;28;20496;-61
2022/08/26 09:08:27;;;;;;;13.48;6.38;;;;;;;;;;4993096;28;20076;-61
2022/08/26 09:10:56;;;;;;;10.45;5.65;;;;;;;;;;4993190;28;20033;-61
2022/08/26 09:13:24;;;;;;;12.80;5.97;;;;;;;;;;4993292;28;20045;-61
2022/08/26 09:16:00;;;;;;;13.48;5.70;;;;;;;;;;4993064;28;20027;-61
2022/08/26 09:18:32;;;;;;;12.05;5.63;;;;;;;;;;4993104;28;20042;-61
2022/08/26 09:21:04;;;;;;;14.27;6.03;;;;;;;;;;4993154;28;20081;-61
2022/08/26 09:23:32;;;;;;;16.13;5.65;;;;;;;;;;4993262;28;20038;-61
2022/08/26 09:26:01;;;;;;;12.90;5.60;;;;;;;;;;4993020;28;20030;-61
2022/08/26 09:28:29;;;;;;;10.80;5.88;;;;;;;;;;4993058;28;20034;-61
2022/08/26 09:31:13;;;;;;;10.40;5.15;;;;;;;;;;4993061;28;20033;-61
2022/08/26 09:33:40;;;;;;;12.80;5.60;;;;;;;;;;4992858;28;20054;-61
2022/08/26 09:36:17;;;;;;;13.48;5.32;;;;;;;;;;4993052;28;20022;-61
2022/08/26 09:38:44;;;;;;;13.93;5.22;;;;;;;;;;4992871;28;20237;-61
2022/08/26 09:41:23;;;;;;;15.75;5.35;;;;;;;;;;4992922;28;20027;-61
2022/08/26 09:44:08;;;;;;;12.18;5.63;;;;;;;;;;4992931;28;20030;-61
2022/08/26 09:46:36;;;;;;;12.73;5.53;;;;;;;;;;4992916;28;20029;-60
2022/08/26 09:49:29;;;;;;;9.20;4.90;;;;;;;;;;4992865;28;20034;-61
2022/08/26 09:52:05;;;;;;;10.80;5.03;;;;;;;;;;4989237;28;20038;-61
2022/08/26 09:54:32;;;;;;;12.98;4.80;;;;;;;;;;4992907;28;20097;-61
2022/08/26 09:57:17;;;;;;;10.93;4.60;;;;;;;;;;4992744;28;20031;-60
2022/08/26 09:59:44;;;;;;;13.50;4.90;;;;;;;;;;4992925;28;20027;-61
2022/08/26 10:02:17;;;;;;;15.07;4.97;;;;;;;;;;4992820;28;20511;-61
2022/08/26 10:05:05;;;;;;;15.25;5.07;;;;;;;;;;4992776;28;20053;-61
2022/08/26 10:07:39;;;;;;;10.45;4.75;;;;;;;;;;4992707;28;20385;-62
2022/08/26 10:10:09;;;;;;;10.95;4.63;;;;;;;;;;4992902;28;20034;-61
2022/08/26 10:12:38;;;;;;;11.20;4.88;;;;;;;;;;4995210;28;20495;-62
2022/08/26 10:15:09;;;;;;;11.93;5.40;;;;;;;;;;4975530;28;20511;-61
2022/08/26 10:17:49;;;;;;;16.23;4.63;;;;;;;;;;4976364;28;20030;-61
2022/08/26 10:20:31;;;;;;;12.05;4.88;;;;;;;;;;4976446;28;20101;-61
2022/08/26 10:23:17;;;;;;;10.63;4.50;;;;;;;;;;4972352;28;20385;-61
2022/08/26 10:25:47;;;;;;;13.02;4.95;;;;;;;;;;4972868;28;20351;-62
2022/08/26 10:28:40;;;;;;;12.07;4.75;;;;;;;;;;4971154;28;20048;-62
2022/08/26 10:31:13;;;;;;;14.68;4.97;;;;;;;;;;4968561;28;20042;-62
2022/08/26 10:33:40;;;;;;;16.27;4.95;;;;;;;;;;4972080;28;20061;-61
2022/08/26 10:36:47;;;;;;;26.98;5.85;;;;;;;;;;4970975;28;20081;-62
2022/08/26 10:38:59;;;;;;;17.48;5.05;;;;;;;;;;4977190;28;20089;-61
2022/08/26 10:41:27;;;;;;;14.68;4.90;;;;;;;;;;4963856;28;20070;-62
2022/08/26 10:43:59;;;;;;;13.48;4.95;;;;;;;;;;4979762;28;20510;-61
2022/08/26 10:46:38;;;;;;;12.48;4.60;;;;;;;;;;4972055;28;20047;-61
2022/08/26 10:49:16;;;;;;;20.17;4.63;;;;;;;;;;4973754;28;20026;-61
2022/08/26 10:51:50;;;;;;;21.42;5.10;;;;;;;;;;4974911;28;20559;-61
2022/08/26 10:54:21;;;;;;;14.68;4.93;;;;;;;;;;4974934;28;20031;-61
2022/08/26 10:56:48;;;;;;;16.65;4.65;;;;;;;;;;4977359;28;20503;-61
2022/08/26 10:59:33;;;;;;;15.98;5.18;;;;;;;;;;4974709;28;20503;-61
2022/08/26 11:02:08;;;;;;;16.17;4.63;;;;;;;;;;4974859;28;20370;-61
2022/08/26 11:04:44;;;;;;;20.65;5.10;;;;;;;;;;4974904;28;20029;-61
2022/08/26 11:07:29;;;;;;;16.33;5.30;;;;;;;;;;4974254;28;20481;-61
2022/08/26 11:09:58;;;;;;;23.98;5.18;;;;;;;;;;4956855;29;20031;-61
2022/08/26 11:12:34;;;;;;;28.95;7.20;;;;;;;;;;4956344;29;20110;-60
2022/08/26 11:15:22;;;;;;;45.88;7.32;;;;;;;;;;4956407;29;20110;-61
2022/08/26 11:17:49;;;;;;;69.85;7.95;;;;;;;;;;4926767;29;20050;-60
2022/08/26 11:20:28;;;;;;;55.38;7.88;;;;;;;;;;4956426;29;20042;-57
2022/08/26 11:22:56;;;;;;;68.75;8.43;;;;;;;;;;4956204;28;20102;-61
2022/08/26 11:25:24;;;;;;;165.82;16.80;;;;;;;;;;4956345;29;20019;-53
2022/08/26 11:27:56;;;;;;;141.60;13.63;;;;;;;;;;4956241;29;20833;-57
2022/08/26 11:30:23;;;;;;;81.78;8.85;;;;;;;;;;4956170;29;20035;-57
2022/08/26 11:32:56;;;;;;;61.88;8.80;;;;;;;;;;4956064;29;20367;-57
2022/08/26 11:35:23;;;;;;;54.25;8.68;;;;;;;;;;4955912;29;20055;-53
2022/08/26 11:37:55;;;;;;;52.58;8.55;;;;;;;;;;4955863;29;20122;-47
2022/08/26 11:40:27;;;;;;;56.60;9.02;;;;;;;;;;4956030;29;20032;-52
2022/08/26 11:43:00;;;;;;;60.50;9.83;;;;;;;;;;4956042;29;20035;-57
2022/08/26 11:45:36;;;;;;;133.55;12.10;;;;;;;;;;4955857;29;20058;-52
2022/08/26 11:48:15;;;;;;;125.78;14.05;;;;;;;;;;4955953;29;20039;-58
2022/08/26 11:50:52;;;;;;;91.75;11.40;;;;;;;;;;4955555;29;20500;-59
2022/08/26 11:53:19;;;;;;;75.35;10.07;;;;;;;;;;4956006;28;20035;-58
2022/08/26 11:55:46;;;;;;;79.65;11.02;;;;;;;;;;4955731;29;20478;-57
2022/08/26 11:58:14;;;;;;;55.33;10.05;;;;;;;;;;4955430;29;20035;-57
2022/08/26 12:00:53;;;;;;;81.22;10.52;;;;;;;;;;4955571;28;20552;-58
2022/08/26 12:03:25;;;;;;;81.63;12.30;;;;;;;;;;4955620;29;20100;-59
2022/08/26 12:05:53;;;;;;;100.72;12.60;;;;;;;;;;4955454;29;20487;-59
2022/08/26 12:08:21;;;;;;;96.60;13.63;;;;;;;;;;4955322;29;20433;-58
2022/08/26 12:10:48;;;;;;;97.50;14.40;;;;;;;;;;4960525;28;20034;-58
2022/08/26 12:13:21;;;;;;;97.10;13.65;;;;;;;;;;4971055;28;20047;-59
2022/08/26 12:15:58;;;;;;;104.72;15.00;;;;;;;;;;4993888;28;20052;-54
2022/08/26 12:18:38;;;;;;;109.65;13.13;;;;;;;;;;4993865;28;20112;-58
2022/08/26 12:21:12;;;;;;;89.47;14.77;;;;;;;;;;4993705;28;20050;-57
2022/08/26 12:23:41;;;;;;;93.72;13.55;;;;;;;;;;4994013;28;20559;-53
2022/08/26 12:26:26;;;;;;;96.05;12.63;;;;;;;;;;4993692;28;20030;-52
2022/08/26 12:29:01;;;;;;;92.32;13.23;;;;;;;;;;4993743;28;20045;-59
2022/08/26 12:31:31;;;;;;;89.07;12.48;;;;;;;;;;4993728;28;20046;-57
2022/08/26 12:33:58;;;;;;;86.00;12.55;;;;;;;;;;4993004;28;20050;-57
2022/08/26 12:36:33;;;;;;;75.18;12.05;;;;;;;;;;4993491;28;20054;-58
2022/08/26 12:39:14;;;;;;;87.45;11.95;;;;;;;;;;4993509;28;20034;-57
2022/08/26 12:41:47;;;;;;;84.15;12.48;;;;;;;;;;4993586;28;20034;-57
2022/08/26 12:44:32;;;;;;;75.05;11.90;;;;;;;;;;4976093;28;20387;-57
2022/08/26 12:47:07;;;;;;;81.35;11.50;;;;;;;;;;4993470;28;20030;-58
2022/08/26 12:49:35;;;;;;;75.80;12.02;;;;;;;;;;4993625;28;20153;-58
2022/08/26 12:52:03;;;;;;;80.13;12.00;;;;;;;;;;4993228;28;20034;-57
2022/08/26 12:57:15;;;;;;;94.63;11.05;;;;;;;;;;4974701;28;20088;-57
2022/08/26 12:59:42;;;;;;;83.80;11.52;;;;;;;;;;4973530;28;20117;-58
2022/08/26 13:02:09;;;;;;;81.88;11.35;;;;;;;;;;4973504;28;20177;-57
2022/08/26 13:04:36;;;;;;;81.50;11.68;;;;;;;;;;4973801;28;20030;-58
2022/08/26 13:07:20;;;;;;;69.72;10.82;;;;;;;;;;4973271;28;20049;-57
2022/08/26 13:09:48;;;;;;;69.88;10.30;;;;;;;;;;4973615;28;20027;-57
2022/08/26 13:12:26;;;;;;;65.03;10.05;;;;;;;;;;4973486;28;20038;-58
2022/08/26 13:14:53;;;;;;;87.80;10.32;;;;;;;;;;4973650;28;20034;-57
2022/08/26 13:17:20;;;;;;;75.35;10.50;;;;;;;;;;4973392;28;20031;-57
2022/08/26 13:19:47;;;;;;;90.18;11.07;;;;;;;;;;4973600;28;20031;-59
2022/08/26 13:22:14;;;;;;;77.40;10.20;;;;;;;;;;4973559;28;20047;-57
2022/08/26 13:24:43;;;;;;;80.57;10.43;;;;;;;;;;4960310;28;20035;-58
2022/08/26 13:27:11;;;;;;;85.55;10.48;;;;;;;;;;4973447;28;20113;-56
2022/08/26 13:29:39;;;;;;;84.05;11.00;;;;;;;;;;4973392;28;20038;-57
2022/08/26 13:32:06;;;;;;;77.68;11.52;;;;;;;;;;4973482;28;20054;-57
2022/08/26 13:34:34;;;;;;;78.07;10.23;;;;;;;;;;4973069;28;20050;-55
2022/08/26 13:37:02;;;;;;;78.65;10.63;;;;;;;;;;4955831;28;20035;-57
2022/08/26 13:39:29;;;;;;;72.22;10.73;;;;;;;;;;4973504;28;20043;-57
2022/08/26 13:41:56;;;;;;;87.90;9.65;;;;;;;;;;4973477;28;20054;-57
2022/08/26 13:44:22;;;;;;;74.80;9.75;;;;;;;;;;4959619;28;20031;-54
2022/08/26 13:46:49;;;;;;;68.03;9.75;;;;;;;;;;4976012;28;20036;-55
2022/08/26 13:49:16;;;;;;;63.70;9.40;;;;;;;;;;4977115;28;20066;-53
2022/08/26 13:51:43;;;;;;;70.07;9.35;;;;;;;;;;4976803;28;20030;-55
2022/08/26 13:54:10;;;;;;;77.93;9.73;;;;;;;;;;4959660;28;20066;-55
2022/08/26 13:56:37;;;;;;;75.10;10.18;;;;;;;;;;4976904;28;20031;-58
2022/08/26 13:59:05;;;;;;;76.93;9.13;;;;;;;;;;4976905;28;20041;-55
2022/08/26 14:01:33;;;;;;;77.85;8.73;;;;;;;;;;4965660;28;20122;-58
2022/08/26 14:04:01;;;;;;;71.65;8.73;;;;;;;;;;4975014;28;20033;-56
2022/08/26 14:06:28;;;;;;;72.93;9.70;;;;;;;;;;4975998;28;20499;-58
2022/08/26 14:08:55;;;;;;;62.60;8.38;;;;;;;;;;4976267;28;20092;-55
2022/08/26 14:11:23;;;;;;;70.50;7.80;;;;;;;;;;4975974;28;20027;-57
2022/08/26 14:13:50;;;;;;;59.45;7.88;;;;;;;;;;4976304;28;20054;-55
2022/08/26 14:16:32;;;;;;;71.50;8.27;;;;;;;;;;4976072;28;20113;-58
2022/08/26 14:19:02;;;;;;;57.17;7.63;;;;;;;;;;4975690;28;20078;-57
2022/08/26 14:21:30;;;;;;;77.45;7.80;;;;;;;;;;4976026;28;20097;-57
2022/08/26 14:23:57;;;;;;;63.72;7.45;;;;;;;;;;4976052;28;20050;-56
2022/08/26 14:26:24;;;;;;;56.40;7.15;;;;;;;;;;4975801;28;20400;-54
2022/08/26 14:28:53;;;;;;;56.45;7.82;;;;;;;;;;4976121;28;20023;-55
2022/08/26 14:31:22;;;;;;;58.13;7.10;;;;;;;;;;4975933;28;20388;-54
2022/08/26 14:33:49;;;;;;;57.85;8.18;;;;;;;;;;4975702;28;20110;-57
2022/08/26 14:36:30;;;;;;;72.60;7.90;;;;;;;;;;4975742;28;20401;-57
2022/08/26 14:39:08;;;;;;;71.57;8.20;;;;;;;;;;4975493;28;20495;-55
2022/08/26 14:41:36;;;;;;;78.32;8.65;;;;;;;;;;4975752;28;20034;-58
2022/08/26 14:44:05;;;;;;;74.32;9.20;;;;;;;;;;4975508;28;20519;-55